Time;durP1;ratioP1;P1;durP2;ratioP2;P2;SDS_P1;SDS_P2;PMS_P1;PMS_P2;Temp;Humidity;BMP_temperature;BMP_pressure;BME280_temperature;BME280_humidity;BME280_pressure;Samples;Min_cycle;Max_cycle;Signal;HPM_P1;HPM_P2
2022/12/08 00:01:14;;;;;;;20.00;11.63;;;;;;;;;;5054487;28;20219;-39
2022/12/08 00:03:41;;;;;;;19.27;11.90;;;;;;;;;;5054577;28;20293;-40
2022/12/08 00:09:22;;;;;;;27.97;18.63;;;;;;;;;;5058623;28;20559;-39
2022/12/08 00:11:49;;;;;;;21.90;12.10;;;;;;;;;;5059030;28;20203;-39
2022/12/08 00:14:16;;;;;;;22.93;12.63;;;;;;;;;;5058534;28;20708;-39
2022/12/08 00:16:43;;;;;;;21.40;12.20;;;;;;;;;;5058656;28;20196;-39
2022/12/08 00:19:10;;;;;;;22.80;12.03;;;;;;;;;;5058485;28;20210;-40
2022/12/08 00:21:37;;;;;;;20.97;11.80;;;;;;;;;;5058618;28;20208;-39
2022/12/08 00:24:04;;;;;;;22.60;12.13;;;;;;;;;;5058239;28;20725;-41
2022/12/08 00:26:31;;;;;;;19.27;11.80;;;;;;;;;;5044234;28;20229;-39
2022/12/08 00:28:59;;;;;;;21.57;11.77;;;;;;;;;;5037617;28;20326;-40
2022/12/08 00:31:26;;;;;;;21.87;11.97;;;;;;;;;;5038154;28;20200;-39
2022/12/08 00:33:53;;;;;;;22.30;12.33;;;;;;;;;;5038133;28;20654;-39
2022/12/08 00:36:20;;;;;;;24.07;12.30;;;;;;;;;;5038357;28;20204;-39
2022/12/08 00:38:47;;;;;;;24.03;12.30;;;;;;;;;;5038141;28;20660;-39
2022/12/08 00:41:18;;;;;;;24.47;12.00;;;;;;;;;;5038729;28;20205;-39
2022/12/08 00:43:45;;;;;;;29.43;13.70;;;;;;;;;;5038056;28;20228;-40
2022/12/08 00:46:12;;;;;;;19.37;12.17;;;;;;;;;;5038297;28;20212;-39
2022/12/08 00:48:39;;;;;;;21.50;11.87;;;;;;;;;;5038031;28;20208;-39
2022/12/08 00:51:06;;;;;;;21.17;12.70;;;;;;;;;;5038256;28;20205;-39
2022/12/08 00:53:33;;;;;;;23.17;12.47;;;;;;;;;;5038595;28;20204;-39
2022/12/08 00:56:00;;;;;;;21.50;11.97;;;;;;;;;;5038103;28;20546;-39
2022/12/08 00:58:28;;;;;;;23.40;12.37;;;;;;;;;;5037962;28;20594;-40
2022/12/08 01:00:55;;;;;;;20.83;12.47;;;;;;;;;;5037663;28;20649;-40
2022/12/08 01:03:22;;;;;;;20.20;11.70;;;;;;;;;;5038447;28;20308;-39
2022/12/08 01:05:49;;;;;;;23.57;11.80;;;;;;;;;;5037938;28;20208;-40
2022/12/08 01:08:17;;;;;;;19.60;11.40;;;;;;;;;;5037648;28;20287;-41
2022/12/08 01:10:44;;;;;;;21.83;11.83;;;;;;;;;;5037890;28;20204;-40
2022/12/08 01:13:11;;;;;;;22.00;10.50;;;;;;;;;;5037398;28;20675;-39
2022/12/08 01:15:38;;;;;;;19.50;10.57;;;;;;;;;;5037470;28;20204;-40
2022/12/08 01:18:05;;;;;;;17.37;10.67;;;;;;;;;;5037653;28;20216;-40
2022/12/08 01:20:33;;;;;;;19.10;11.77;;;;;;;;;;5037621;28;20201;-39
2022/12/08 01:22:59;;;;;;;26.70;12.23;;;;;;;;;;5037538;28;20208;-39
2022/12/08 01:25:27;;;;;;;23.00;11.53;;;;;;;;;;5037704;28;20571;-39
2022/12/08 01:27:54;;;;;;;23.97;10.70;;;;;;;;;;5037325;28;20196;-40
2022/12/08 01:30:21;;;;;;;37.50;18.10;;;;;;;;;;5019601;28;20267;-40
2022/12/08 01:32:48;;;;;;;21.03;12.23;;;;;;;;;;5037121;28;20545;-40
2022/12/08 01:35:15;;;;;;;24.40;12.93;;;;;;;;;;5037394;28;20236;-39
2022/12/08 01:37:42;;;;;;;25.07;13.13;;;;;;;;;;5036990;28;20217;-39
2022/12/08 01:40:09;;;;;;;23.77;13.93;;;;;;;;;;5036411;28;20211;-40
2022/12/08 01:42:37;;;;;;;22.80;12.67;;;;;;;;;;5037175;28;20231;-39
2022/12/08 01:45:07;;;;;;;23.87;13.80;;;;;;;;;;5037245;28;20220;-41
2022/12/08 01:47:40;;;;;;;23.63;13.70;;;;;;;;;;5037664;28;20196;-39
2022/12/08 01:50:10;;;;;;;26.03;14.60;;;;;;;;;;5035988;28;20213;-40
2022/12/08 01:52:46;;;;;;;25.10;14.67;;;;;;;;;;5036368;28;20204;-39
2022/12/08 01:55:14;;;;;;;25.10;14.87;;;;;;;;;;5037946;28;20188;-39
2022/12/08 01:57:47;;;;;;;30.23;14.70;;;;;;;;;;5037502;28;20283;-41
2022/12/08 02:00:17;;;;;;;24.67;14.13;;;;;;;;;;5035998;28;20215;-39
2022/12/08 02:02:57;;;;;;;26.67;14.47;;;;;;;;;;5036610;28;20534;-39
2022/12/08 02:05:28;;;;;;;27.03;15.17;;;;;;;;;;5036622;28;20196;-40
2022/12/08 02:07:56;;;;;;;26.67;15.47;;;;;;;;;;5036213;28;20217;-39
2022/12/08 02:10:27;;;;;;;32.70;16.20;;;;;;;;;;5035587;28;20538;-40
2022/12/08 02:12:55;;;;;;;28.00;16.17;;;;;;;;;;5037587;28;20185;-39
2022/12/08 02:15:31;;;;;;;25.30;14.67;;;;;;;;;;5035422;28;20700;-39
2022/12/08 02:18:12;;;;;;;29.13;16.47;;;;;;;;;;5035627;28;20284;-39
2022/12/08 02:21:03;;;;;;;26.00;15.67;;;;;;;;;;5036252;28;20204;-40
2022/12/08 02:23:40;;;;;;;26.67;15.53;;;;;;;;;;5035676;28;20224;-40
2022/12/08 02:26:32;;;;;;;25.07;14.67;;;;;;;;;;5019303;28;20534;-39
2022/12/08 02:29:24;;;;;;;32.77;16.73;;;;;;;;;;5036405;28;20200;-39
2022/12/08 02:32:15;;;;;;;27.87;14.80;;;;;;;;;;5036338;28;20228;-39
2022/12/08 02:35:17;;;;;;;32.03;16.47;;;;;;;;;;5036147;28;20286;-39
2022/12/08 02:38:00;;;;;;;28.23;15.90;;;;;;;;;;4995021;28;20209;-39
2022/12/08 02:40:30;;;;;;;26.70;15.47;;;;;;;;;;4978869;28;20202;-39
2022/12/08 02:43:07;;;;;;;27.23;15.73;;;;;;;;;;4994887;28;20722;-39
2022/12/08 02:45:37;;;;;;;26.80;15.60;;;;;;;;;;4995203;28;20190;-40
2022/12/08 02:48:04;;;;;;;29.17;16.23;;;;;;;;;;4995064;28;20232;-39
2022/12/08 02:50:31;;;;;;;31.83;16.20;;;;;;;;;;4994880;28;20198;-39
2022/12/08 02:52:58;;;;;;;29.60;16.30;;;;;;;;;;4994701;28;20290;-40
2022/12/08 02:55:48;;;;;;;28.53;16.10;;;;;;;;;;4994804;28;20234;-39
2022/12/08 02:58:36;;;;;;;28.90;17.43;;;;;;;;;;4975253;28;20212;-39
2022/12/08 03:01:52;;;;;;;29.43;16.30;;;;;;;;;;4994557;28;20230;-40
2022/12/08 03:04:28;;;;;;;26.60;15.70;;;;;;;;;;4937283;29;20565;-39
2022/12/08 03:06:57;;;;;;;31.03;16.17;;;;;;;;;;4992476;28;20594;-39
2022/12/08 03:09:33;;;;;;;28.87;16.03;;;;;;;;;;4978517;28;20627;-39
2022/12/08 03:12:03;;;;;;;30.53;16.40;;;;;;;;;;4994382;28;20205;-40
2022/12/08 03:14:32;;;;;;;29.20;15.40;;;;;;;;;;5035116;28;20208;-39
2022/12/08 03:17:00;;;;;;;30.03;16.63;;;;;;;;;;5034632;28;20225;-39
2022/12/08 03:19:33;;;;;;;27.63;15.87;;;;;;;;;;5034494;28;20201;-39
2022/12/08 03:22:02;;;;;;;29.90;16.73;;;;;;;;;;5034506;28;20549;-39
2022/12/08 03:24:31;;;;;;;28.30;15.87;;;;;;;;;;5034277;28;20228;-39
2022/12/08 03:27:02;;;;;;;27.63;17.00;;;;;;;;;;5035767;28;20235;-39
2022/12/08 03:29:31;;;;;;;29.27;16.40;;;;;;;;;;5034621;28;20205;-39
2022/12/08 03:32:06;;;;;;;28.60;16.00;;;;;;;;;;5035260;28;20236;-39
2022/12/08 03:34:34;;;;;;;30.10;15.07;;;;;;;;;;5034377;28;20265;-40
2022/12/08 03:37:01;;;;;;;26.63;14.20;;;;;;;;;;5034244;28;20200;-40
2022/12/08 03:39:29;;;;;;;29.13;15.47;;;;;;;;;;5034275;28;20205;-40
2022/12/08 03:41:56;;;;;;;23.70;14.40;;;;;;;;;;5035035;28;20209;-39
2022/12/08 03:44:23;;;;;;;30.23;15.53;;;;;;;;;;5034957;28;20228;-40
2022/12/08 03:46:50;;;;;;;29.60;15.33;;;;;;;;;;5034785;28;20209;-39
2022/12/08 03:49:17;;;;;;;23.57;14.50;;;;;;;;;;5034896;28;20209;-39
2022/12/08 03:51:44;;;;;;;29.33;15.30;;;;;;;;;;5034764;28;20205;-39
2022/12/08 03:54:11;;;;;;;26.57;14.10;;;;;;;;;;5035068;28;20319;-39
2022/12/08 03:56:38;;;;;;;24.70;13.87;;;;;;;;;;5034748;28;20204;-40
2022/12/08 03:59:06;;;;;;;22.87;13.80;;;;;;;;;;5034756;28;20216;-39
2022/12/08 04:01:33;;;;;;;28.90;14.90;;;;;;;;;;5034785;28;20204;-39
2022/12/08 04:04:01;;;;;;;29.90;15.67;;;;;;;;;;5034678;28;20216;-40
2022/12/08 04:06:28;;;;;;;28.57;14.93;;;;;;;;;;5034567;28;20296;-42
2022/12/08 04:08:55;;;;;;;29.63;15.17;;;;;;;;;;5034525;28;20215;-39
2022/12/08 04:11:22;;;;;;;29.20;14.90;;;;;;;;;;5034575;28;20265;-40
2022/12/08 04:13:49;;;;;;;25.67;15.07;;;;;;;;;;5034711;28;20219;-39
2022/12/08 04:16:19;;;;;;;24.57;15.43;;;;;;;;;;5034762;28;20232;-39
2022/12/08 04:18:46;;;;;;;28.40;15.13;;;;;;;;;;5034487;28;20201;-39
2022/12/08 04:21:14;;;;;;;27.67;15.10;;;;;;;;;;5034706;28;20197;-39
2022/12/08 04:23:41;;;;;;;23.57;14.33;;;;;;;;;;5034340;28;20208;-40
2022/12/08 04:26:08;;;;;;;26.33;15.60;;;;;;;;;;5034487;28;20316;-41
2022/12/08 04:28:35;;;;;;;24.73;15.27;;;;;;;;;;5033793;28;20204;-39
2022/12/08 04:31:03;;;;;;;28.90;15.57;;;;;;;;;;5033461;28;20209;-39
2022/12/08 04:33:30;;;;;;;28.03;15.10;;;;;;;;;;5034264;28;20279;-40
2022/12/08 04:35:57;;;;;;;27.90;15.03;;;;;;;;;;5019359;28;20665;-40
2022/12/08 04:38:24;;;;;;;26.17;14.77;;;;;;;;;;5023181;28;20201;-41
2022/12/08 04:40:51;;;;;;;27.83;16.50;;;;;;;;;;5031533;28;20201;-41
2022/12/08 04:43:18;;;;;;;27.17;15.73;;;;;;;;;;5033573;28;20214;-41
2022/12/08 04:45:45;;;;;;;27.57;15.20;;;;;;;;;;5023680;28;20287;-42
2022/12/08 04:48:13;;;;;;;29.60;14.80;;;;;;;;;;5028006;28;20205;-42
2022/12/08 04:50:42;;;;;;;29.27;16.43;;;;;;;;;;5026933;28;20248;-42
2022/12/08 04:53:10;;;;;;;28.53;15.10;;;;;;;;;;5026307;28;20211;-38
2022/12/08 04:55:40;;;;;;;29.07;15.27;;;;;;;;;;5027959;28;20247;-42
2022/12/08 04:58:12;;;;;;;32.93;17.67;;;;;;;;;;5025527;28;20196;-42
2022/12/08 05:00:43;;;;;;;24.30;14.90;;;;;;;;;;5032445;28;20208;-39
2022/12/08 05:03:10;;;;;;;27.40;16.10;;;;;;;;;;5035149;28;20634;-42
2022/12/08 05:05:38;;;;;;;72.00;35.90;;;;;;;;;;5031655;28;20248;-44
2022/12/08 05:08:05;;;;;;;33.50;17.90;;;;;;;;;;5037265;28;20239;-40
2022/12/08 05:10:32;;;;;;;32.83;17.27;;;;;;;;;;5028670;28;20229;-42
2022/12/08 05:12:59;;;;;;;35.00;17.53;;;;;;;;;;5029963;28;20596;-40
2022/12/08 05:15:26;;;;;;;30.67;16.60;;;;;;;;;;5036698;28;20649;-39
2022/12/08 05:17:54;;;;;;;29.87;16.00;;;;;;;;;;5034446;28;20217;-39
2022/12/08 05:20:21;;;;;;;26.00;15.40;;;;;;;;;;5034342;28;20240;-41
2022/12/08 05:22:48;;;;;;;29.00;16.07;;;;;;;;;;5031982;28;20302;-43
2022/12/08 05:25:15;;;;;;;27.97;15.77;;;;;;;;;;5036481;28;20612;-43
2022/12/08 05:27:43;;;;;;;33.47;15.97;;;;;;;;;;5036758;28;20548;-40
2022/12/08 05:30:10;;;;;;;30.43;16.53;;;;;;;;;;5036817;28;20225;-40
2022/12/08 05:32:37;;;;;;;29.37;15.70;;;;;;;;;;5036409;28;20224;-39
2022/12/08 05:35:05;;;;;;;30.13;16.17;;;;;;;;;;5035896;28;20236;-39
2022/12/08 05:37:32;;;;;;;34.23;20.57;;;;;;;;;;5036497;28;20534;-40
2022/12/08 05:39:59;;;;;;;29.90;16.60;;;;;;;;;;5036374;28;20225;-41
2022/12/08 05:42:26;;;;;;;40.43;21.87;;;;;;;;;;5035682;28;20233;-39
2022/12/08 05:44:53;;;;;;;33.73;18.77;;;;;;;;;;5035709;28;20328;-41
2022/12/08 05:47:20;;;;;;;37.37;22.87;;;;;;;;;;5035444;28;20561;-43
2022/12/08 05:49:47;;;;;;;37.63;21.53;;;;;;;;;;5033823;28;20220;-40
2022/12/08 05:52:15;;;;;;;33.17;18.47;;;;;;;;;;5035958;28;20620;-41
2022/12/08 05:54:43;;;;;;;27.70;16.00;;;;;;;;;;5035531;28;20236;-41
2022/12/08 05:57:10;;;;;;;26.30;16.13;;;;;;;;;;5035906;28;20684;-40
2022/12/08 05:59:37;;;;;;;28.27;16.40;;;;;;;;;;5035423;28;20236;-40
2022/12/08 06:02:05;;;;;;;27.93;17.07;;;;;;;;;;5035579;28;20240;-41
2022/12/08 06:04:32;;;;;;;32.17;16.37;;;;;;;;;;5034713;28;20224;-40
2022/12/08 06:06:59;;;;;;;28.80;16.43;;;;;;;;;;5035761;28;20224;-41
2022/12/08 06:09:26;;;;;;;30.10;17.63;;;;;;;;;;5034475;28;20224;-39
2022/12/08 06:11:53;;;;;;;30.67;16.47;;;;;;;;;;5036490;28;20215;-39
2022/12/08 06:14:20;;;;;;;28.73;16.73;;;;;;;;;;5035024;28;20254;-40
2022/12/08 06:16:47;;;;;;;27.87;16.90;;;;;;;;;;5033851;28;20205;-40
2022/12/08 06:19:15;;;;;;;26.87;16.13;;;;;;;;;;5035145;28;20247;-40
2022/12/08 06:21:42;;;;;;;30.80;17.63;;;;;;;;;;5000613;28;20200;-40
2022/12/08 06:24:10;;;;;;;27.63;15.20;;;;;;;;;;5035411;28;20235;-39
2022/12/08 06:26:40;;;;;;;26.13;14.67;;;;;;;;;;5035562;28;20751;-41
2022/12/08 06:29:07;;;;;;;38.27;16.97;;;;;;;;;;5034612;28;20649;-40
2022/12/08 06:31:34;;;;;;;43.60;22.53;;;;;;;;;;5035366;28;20542;-40
2022/12/08 06:34:01;;;;;;;34.27;18.37;;;;;;;;;;5036077;28;20250;-43
2022/12/08 06:36:28;;;;;;;37.47;20.60;;;;;;;;;;5035691;28;20204;-40
2022/12/08 06:38:55;;;;;;;95.93;36.67;;;;;;;;;;5035944;28;20200;-40
2022/12/08 06:41:23;;;;;;;77.60;29.33;;;;;;;;;;5035384;28;20205;-40
2022/12/08 06:43:50;;;;;;;60.53;23.53;;;;;;;;;;5035435;28;20224;-40
2022/12/08 06:46:18;;;;;;;56.73;24.07;;;;;;;;;;5035509;28;20224;-44
2022/12/08 06:48:46;;;;;;;50.87;21.37;;;;;;;;;;5035565;28;20214;-41
2022/12/08 06:51:16;;;;;;;57.70;23.23;;;;;;;;;;5034841;28;20216;-40
2022/12/08 06:53:44;;;;;;;93.63;30.53;;;;;;;;;;5035941;28;20188;-40
2022/12/08 06:56:13;;;;;;;63.67;23.80;;;;;;;;;;5035805;28;20203;-40
2022/12/08 06:58:41;;;;;;;36.53;23.00;;;;;;;;;;5035341;28;20534;-39
2022/12/08 07:01:16;;;;;;;41.57;22.97;;;;;;;;;;5035482;28;20204;-39
2022/12/08 07:03:43;;;;;;;51.40;19.30;;;;;;;;;;5034899;28;20204;-40
2022/12/08 07:06:15;;;;;;;91.40;35.40;;;;;;;;;;5035067;28;20677;-40
2022/12/08 07:08:42;;;;;;;35.50;18.53;;;;;;;;;;5033928;28;20212;-39
2022/12/08 07:11:10;;;;;;;33.60;18.20;;;;;;;;;;5035546;28;20201;-41
2022/12/08 07:13:43;;;;;;;46.17;20.13;;;;;;;;;;5034977;28;20236;-41
2022/12/08 07:16:11;;;;;;;112.73;42.57;;;;;;;;;;5034929;28;20212;-40
2022/12/08 07:18:38;;;;;;;37.97;17.50;;;;;;;;;;5035124;28;20523;-41
2022/12/08 07:21:09;;;;;;;40.77;20.10;;;;;;;;;;5035069;28;20638;-39
2022/12/08 07:23:36;;;;;;;324.67;84.80;;;;;;;;;;5035569;28;20184;-40
2022/12/08 07:26:06;;;;;;;153.43;51.40;;;;;;;;;;5034703;28;20599;-40
2022/12/08 07:28:35;;;;;;;53.67;21.70;;;;;;;;;;5035022;28;20204;-42
2022/12/08 07:31:03;;;;;;;32.77;16.50;;;;;;;;;;5034243;28;20201;-41
2022/12/08 07:33:31;;;;;;;49.93;20.20;;;;;;;;;;5034970;28;20224;-41
2022/12/08 07:36:01;;;;;;;57.67;18.27;;;;;;;;;;5033867;28;20204;-40
2022/12/08 07:38:28;;;;;;;71.43;23.47;;;;;;;;;;5034348;28;20223;-40
2022/12/08 07:40:55;;;;;;;38.87;20.07;;;;;;;;;;5034840;28;20529;-40
2022/12/08 07:43:22;;;;;;;83.97;41.20;;;;;;;;;;5033937;28;20205;-40
2022/12/08 07:45:50;;;;;;;78.70;27.03;;;;;;;;;;5033651;28;20681;-41
2022/12/08 07:48:18;;;;;;;46.30;21.07;;;;;;;;;;5034533;28;20197;-40
2022/12/08 07:50:45;;;;;;;29.73;14.80;;;;;;;;;;5034471;28;20205;-40
2022/12/08 07:53:12;;;;;;;31.33;14.60;;;;;;;;;;5034665;28;20274;-40
2022/12/08 07:55:40;;;;;;;39.00;17.17;;;;;;;;;;5034642;28;20215;-40
2022/12/08 07:58:07;;;;;;;36.03;15.13;;;;;;;;;;5034461;28;20196;-41
2022/12/08 08:00:35;;;;;;;26.97;14.73;;;;;;;;;;5034413;28;20205;-40
2022/12/08 08:03:02;;;;;;;58.30;27.97;;;;;;;;;;5034098;28;20200;-42
2022/12/08 08:05:29;;;;;;;35.67;19.23;;;;;;;;;;5034690;28;20232;-39
2022/12/08 08:07:56;;;;;;;115.53;31.80;;;;;;;;;;5034137;28;20204;-42
2022/12/08 08:10:23;;;;;;;153.53;45.40;;;;;;;;;;5034684;28;20638;-40
2022/12/08 08:12:50;;;;;;;64.00;28.03;;;;;;;;;;5033940;28;20228;-42
2022/12/08 08:15:19;;;;;;;64.40;33.17;;;;;;;;;;5035053;28;20266;-40
2022/12/08 08:17:50;;;;;;;68.37;41.83;;;;;;;;;;5033963;28;20201;-40
2022/12/08 08:20:18;;;;;;;87.07;44.13;;;;;;;;;;5034456;28;20208;-40
2022/12/08 08:22:46;;;;;;;45.63;28.00;;;;;;;;;;5034283;28;20208;-41
2022/12/08 08:25:14;;;;;;;44.20;23.23;;;;;;;;;;5034435;28;20320;-42
2022/12/08 08:27:41;;;;;;;40.47;24.00;;;;;;;;;;5038642;28;20231;-40
2022/12/08 08:30:10;;;;;;;47.50;25.00;;;;;;;;;;5038331;28;20638;-41
2022/12/08 08:32:47;;;;;;;59.93;35.43;;;;;;;;;;5037982;28;20244;-43
2022/12/08 08:35:14;;;;;;;33.13;20.50;;;;;;;;;;5038335;28;20201;-40
2022/12/08 08:37:41;;;;;;;43.97;22.07;;;;;;;;;;5038153;28;20204;-41
2022/12/08 08:40:16;;;;;;;43.30;21.57;;;;;;;;;;5038158;28;20228;-40
2022/12/08 08:42:42;;;;;;;33.90;17.50;;;;;;;;;;5037477;28;20200;-40
2022/12/08 08:45:10;;;;;;;48.77;19.33;;;;;;;;;;5037067;28;20239;-41
2022/12/08 08:47:37;;;;;;;28.97;15.27;;;;;;;;;;5037631;28;20208;-40
2022/12/08 08:50:05;;;;;;;29.93;15.77;;;;;;;;;;5038176;28;20303;-41
2022/12/08 08:52:32;;;;;;;27.73;15.93;;;;;;;;;;5038028;28;20621;-39
2022/12/08 08:55:00;;;;;;;38.50;20.33;;;;;;;;;;5037241;28;20220;-39
2022/12/08 08:57:27;;;;;;;39.23;23.87;;;;;;;;;;5037969;28;20205;-39
2022/12/08 08:59:54;;;;;;;24.77;14.67;;;;;;;;;;5037447;28;20200;-42
2022/12/08 09:02:21;;;;;;;29.10;18.07;;;;;;;;;;5037506;28;20204;-40
2022/12/08 09:04:48;;;;;;;31.83;18.77;;;;;;;;;;5044847;28;20192;-41
2022/12/08 09:07:15;;;;;;;27.00;14.33;;;;;;;;;;5057554;28;20204;-40
2022/12/08 09:09:43;;;;;;;30.47;14.27;;;;;;;;;;5057569;28;20683;-40
2022/12/08 09:12:10;;;;;;;20.43;11.60;;;;;;;;;;5056552;28;20277;-40
2022/12/08 09:14:37;;;;;;;25.20;12.37;;;;;;;;;;5057044;28;20668;-40
2022/12/08 09:17:05;;;;;;;21.13;12.27;;;;;;;;;;5056166;28;20216;-40
2022/12/08 09:19:33;;;;;;;26.73;17.03;;;;;;;;;;5056732;28;20204;-40
2022/12/08 09:22:00;;;;;;;81.20;31.63;;;;;;;;;;5057174;28;20218;-41
2022/12/08 09:24:27;;;;;;;34.97;19.93;;;;;;;;;;5056353;28;20653;-40
2022/12/08 09:26:54;;;;;;;41.40;24.23;;;;;;;;;;5056256;28;20240;-41
2022/12/08 09:29:21;;;;;;;37.40;20.93;;;;;;;;;;5056124;28;20206;-40
2022/12/08 09:31:48;;;;;;;30.20;19.60;;;;;;;;;;5057362;28;20220;-40
2022/12/08 09:34:17;;;;;;;38.87;21.80;;;;;;;;;;5055836;28;20257;-41
2022/12/08 09:36:43;;;;;;;53.80;23.67;;;;;;;;;;5055577;28;20235;-41
2022/12/08 09:39:11;;;;;;;57.17;28.63;;;;;;;;;;5056668;28;20577;-40
2022/12/08 09:41:44;;;;;;;43.27;22.47;;;;;;;;;;5056954;28;20697;-42
2022/12/08 09:44:39;;;;;;;32.03;16.70;;;;;;;;;;5056415;28;20218;-40
2022/12/08 09:47:36;;;;;;;23.67;15.20;;;;;;;;;;5056458;28;20227;-42
2022/12/08 09:50:11;;;;;;;24.93;14.70;;;;;;;;;;5054157;28;20204;-41
2022/12/08 09:52:47;;;;;;;27.23;15.77;;;;;;;;;;5056813;28;20624;-40
2022/12/08 09:55:21;;;;;;;36.80;18.20;;;;;;;;;;5054458;28;20188;-41
2022/12/08 09:57:54;;;;;;;46.47;22.67;;;;;;;;;;5054246;28;20180;-41
2022/12/08 10:00:23;;;;;;;35.47;20.20;;;;;;;;;;5055167;28;20536;-40
2022/12/08 10:02:50;;;;;;;28.73;14.97;;;;;;;;;;5054954;28;20291;-41
2022/12/08 10:05:17;;;;;;;26.70;16.53;;;;;;;;;;5054706;28;20211;-41
2022/12/08 10:07:56;;;;;;;38.10;25.13;;;;;;;;;;5055343;28;20253;-40
2022/12/08 10:10:37;;;;;;;26.67;16.17;;;;;;;;;;5055663;28;20216;-40
2022/12/08 10:13:21;;;;;;;22.30;12.93;;;;;;;;;;5054254;28;20269;-43
2022/12/08 10:16:20;;;;;;;26.77;15.37;;;;;;;;;;5055272;28;20208;-40
2022/12/08 10:19:01;;;;;;;33.47;18.67;;;;;;;;;;5055898;28;20184;-41
2022/12/08 10:21:29;;;;;;;34.60;17.80;;;;;;;;;;5056479;28;20208;-41
2022/12/08 10:24:03;;;;;;;41.50;23.00;;;;;;;;;;5054622;28;20228;-40
2022/12/08 10:26:31;;;;;;;37.07;19.93;;;;;;;;;;5055203;28;20247;-39
2022/12/08 10:29:01;;;;;;;46.07;21.10;;;;;;;;;;5055634;28;20660;-40
2022/12/08 10:31:29;;;;;;;50.47;22.43;;;;;;;;;;5056294;28;20223;-40
2022/12/08 10:33:59;;;;;;;42.40;19.80;;;;;;;;;;5055851;28;20262;-41
2022/12/08 10:36:47;;;;;;;35.57;17.87;;;;;;;;;;5055821;28;20219;-40
2022/12/08 10:39:36;;;;;;;37.30;15.97;;;;;;;;;;5055783;28;20204;-40
2022/12/08 10:42:07;;;;;;;23.07;13.40;;;;;;;;;;5055817;28;20574;-41
2022/12/08 10:44:49;;;;;;;23.60;14.10;;;;;;;;;;5055575;28;20204;-41
2022/12/08 10:47:20;;;;;;;32.37;16.83;;;;;;;;;;5053990;28;20301;-42
2022/12/08 10:49:46;;;;;;;30.97;18.00;;;;;;;;;;5054072;28;20200;-41
2022/12/08 10:52:23;;;;;;;26.03;15.70;;;;;;;;;;5054833;28;20633;-40
2022/12/08 10:54:53;;;;;;;29.93;16.27;;;;;;;;;;5054284;28;20206;-41
2022/12/08 10:57:22;;;;;;;33.93;18.27;;;;;;;;;;5054633;28;20192;-40
2022/12/08 10:59:49;;;;;;;30.37;17.73;;;;;;;;;;5055700;28;20224;-40
2022/12/08 11:02:19;;;;;;;33.73;19.30;;;;;;;;;;5055744;28;20522;-41
2022/12/08 11:04:46;;;;;;;35.87;19.17;;;;;;;;;;5054222;28;20279;-41
2022/12/08 11:07:20;;;;;;;40.27;23.07;;;;;;;;;;5055206;28;20231;-41
2022/12/08 11:09:49;;;;;;;36.20;19.57;;;;;;;;;;5052896;28;20185;-40
2022/12/08 11:12:18;;;;;;;48.47;27.50;;;;;;;;;;5054148;28;20222;-40
2022/12/08 11:15:00;;;;;;;60.57;36.93;;;;;;;;;;5054059;28;20208;-41
2022/12/08 11:17:28;;;;;;;63.67;38.13;;;;;;;;;;5054877;28;20223;-40
2022/12/08 11:20:07;;;;;;;41.07;24.10;;;;;;;;;;5036994;28;20536;-40
2022/12/08 11:22:41;;;;;;;37.60;21.10;;;;;;;;;;5055147;28;20683;-41
2022/12/08 11:25:10;;;;;;;35.53;20.80;;;;;;;;;;5054558;28;20561;-40
2022/12/08 11:27:42;;;;;;;42.20;24.73;;;;;;;;;;5055201;28;20610;-41
2022/12/08 11:30:27;;;;;;;53.63;27.67;;;;;;;;;;5054079;28;20219;-40
2022/12/08 11:32:58;;;;;;;43.03;22.97;;;;;;;;;;5054886;28;20257;-40
2022/12/08 11:35:29;;;;;;;37.90;20.63;;;;;;;;;;5054115;28;20204;-40
2022/12/08 11:38:03;;;;;;;39.70;21.50;;;;;;;;;;5054698;28;20192;-41
2022/12/08 11:40:49;;;;;;;43.27;23.00;;;;;;;;;;5054777;28;20188;-41
2022/12/08 11:43:34;;;;;;;38.73;21.57;;;;;;;;;;5054609;28;20200;-40
2022/12/08 11:46:11;;;;;;;46.80;24.43;;;;;;;;;;5054849;28;20219;-43
2022/12/08 11:48:45;;;;;;;44.47;24.20;;;;;;;;;;5052325;28;20202;-42
2022/12/08 11:51:33;;;;;;;43.77;23.83;;;;;;;;;;5052746;28;20211;-42
2022/12/08 11:54:22;;;;;;;41.57;22.20;;;;;;;;;;5052356;28;20211;-40
2022/12/08 11:57:01;;;;;;;40.30;23.40;;;;;;;;;;5054865;28;20218;-40
2022/12/08 11:59:31;;;;;;;43.33;23.87;;;;;;;;;;5053809;28;20211;-40
2022/12/08 12:02:00;;;;;;;54.70;30.50;;;;;;;;;;5052860;28;20207;-40
2022/12/08 12:04:37;;;;;;;47.17;25.77;;;;;;;;;;5053612;28;20543;-40
2022/12/08 12:07:24;;;;;;;51.80;26.87;;;;;;;;;;5053727;28;20254;-41
2022/12/08 12:10:01;;;;;;;41.40;22.37;;;;;;;;;;5054541;28;20215;-40
2022/12/08 12:12:56;;;;;;;58.23;27.63;;;;;;;;;;5053738;28;20194;-39
2022/12/08 12:15:26;;;;;;;51.97;26.73;;;;;;;;;;5054471;28;20196;-40
2022/12/08 12:18:07;;;;;;;45.67;22.17;;;;;;;;;;5054693;28;20253;-41
2022/12/08 12:21:03;;;;;;;61.57;27.30;;;;;;;;;;5054691;28;20203;-41
2022/12/08 12:23:49;;;;;;;65.80;26.97;;;;;;;;;;5052137;28;20192;-42
2022/12/08 12:26:20;;;;;;;34.33;18.70;;;;;;;;;;5051316;28;20239;-44
2022/12/08 12:28:59;;;;;;;41.07;21.73;;;;;;;;;;5052468;28;20645;-40
2022/12/08 12:31:42;;;;;;;35.03;20.47;;;;;;;;;;5053016;28;20196;-39
2022/12/08 12:34:21;;;;;;;32.43;18.27;;;;;;;;;;5053300;28;20207;-42
2022/12/08 12:36:55;;;;;;;30.57;16.87;;;;;;;;;;5053533;28;20231;-40
2022/12/08 12:39:27;;;;;;;48.07;22.70;;;;;;;;;;5052928;28;20200;-40
2022/12/08 12:41:56;;;;;;;65.63;23.70;;;;;;;;;;5053331;28;20185;-40
2022/12/08 12:44:36;;;;;;;41.10;19.87;;;;;;;;;;5054260;28;20200;-40
2022/12/08 12:47:09;;;;;;;32.83;17.67;;;;;;;;;;5054554;28;20223;-41
2022/12/08 12:49:39;;;;;;;31.63;16.80;;;;;;;;;;5054153;28;20184;-40
2022/12/08 12:52:16;;;;;;;34.90;20.73;;;;;;;;;;5054205;28;20204;-40
2022/12/08 12:55:09;;;;;;;28.87;17.37;;;;;;;;;;5036173;28;20220;-40
2022/12/08 12:57:38;;;;;;;27.03;15.83;;;;;;;;;;5049037;28;20229;-42
2022/12/08 13:00:17;;;;;;;28.20;15.27;;;;;;;;;;5052803;28;20278;-41
2022/12/08 13:02:47;;;;;;;32.33;16.47;;;;;;;;;;5048425;28;20583;-44
2022/12/08 13:05:22;;;;;;;30.83;16.17;;;;;;;;;;5013070;28;20599;-41
2022/12/08 13:08:02;;;;;;;33.20;16.83;;;;;;;;;;5030473;28;20220;-40
2022/12/08 13:10:35;;;;;;;24.57;14.60;;;;;;;;;;5031396;28;20638;-44
2022/12/08 13:13:08;;;;;;;25.07;14.10;;;;;;;;;;5034910;28;20189;-40
2022/12/08 13:15:40;;;;;;;26.97;14.57;;;;;;;;;;5036941;28;20215;-40
2022/12/08 13:18:26;;;;;;;30.53;16.60;;;;;;;;;;5036940;28;20223;-40
2022/12/08 13:21:02;;;;;;;28.73;15.87;;;;;;;;;;5036748;28;20208;-39
2022/12/08 13:23:35;;;;;;;25.67;14.60;;;;;;;;;;5037175;28;20209;-39
2022/12/08 13:26:11;;;;;;;29.37;14.50;;;;;;;;;;5037217;28;20243;-40
2022/12/08 13:28:56;;;;;;;27.20;15.37;;;;;;;;;;5037391;28;20552;-39
2022/12/08 13:31:42;;;;;;;48.50;18.13;;;;;;;;;;5037475;28;20524;-40
2022/12/08 13:34:29;;;;;;;38.13;15.80;;;;;;;;;;5037536;28;20204;-39
2022/12/08 13:37:10;;;;;;;41.70;16.60;;;;;;;;;;5037597;28;20242;-39
2022/12/08 13:39:40;;;;;;;32.87;14.53;;;;;;;;;;5038032;28;20197;-40
2022/12/08 13:42:19;;;;;;;48.87;26.13;;;;;;;;;;5035113;28;20244;-42
2022/12/08 13:45:12;;;;;;;24.93;14.43;;;;;;;;;;5055396;28;20269;-41
2022/12/08 13:48:08;;;;;;;24.30;14.33;;;;;;;;;;5037056;28;20312;-43
2022/12/08 13:51:08;;;;;;;27.57;14.80;;;;;;;;;;5016610;28;20217;-43
2022/12/08 13:54:03;;;;;;;39.33;17.03;;;;;;;;;;5017141;28;20196;-43
2022/12/08 13:56:51;;;;;;;39.60;17.37;;;;;;;;;;5048082;28;20544;-43
2022/12/08 13:59:34;;;;;;;28.40;14.37;;;;;;;;;;5033189;28;20628;-43
2022/12/08 14:02:16;;;;;;;29.30;14.67;;;;;;;;;;5056134;28;20208;-43
2022/12/08 14:04:46;;;;;;;21.87;12.33;;;;;;;;;;5021743;28;20618;-43
2022/12/08 14:07:33;;;;;;;24.83;14.83;;;;;;;;;;5016963;28;20214;-44
2022/12/08 14:10:02;;;;;;;23.70;13.00;;;;;;;;;;5016944;28;20221;-46
2022/12/08 14:12:29;;;;;;;21.03;12.43;;;;;;;;;;5016234;28;20202;-45
2022/12/08 14:15:04;;;;;;;22.20;12.83;;;;;;;;;;5032964;28;20294;-44
2022/12/08 14:17:32;;;;;;;24.43;12.07;;;;;;;;;;5019469;28;20216;-43
2022/12/08 14:20:21;;;;;;;31.57;15.53;;;;;;;;;;5016667;28;20197;-43
2022/12/08 14:22:49;;;;;;;38.50;16.20;;;;;;;;;;5012633;28;20228;-44
2022/12/08 14:25:17;;;;;;;311.60;163.40;;;;;;;;;;5013621;28;20450;-43
2022/12/08 14:27:45;;;;;;;54.50;33.47;;;;;;;;;;5015360;28;20252;-44
2022/12/08 14:30:13;;;;;;;65.17;42.43;;;;;;;;;;5021831;28;20599;-43
2022/12/08 14:32:40;;;;;;;66.97;46.63;;;;;;;;;;5023085;28;20233;-45
2022/12/08 14:35:07;;;;;;;44.87;26.40;;;;;;;;;;5021163;28;20247;-44
2022/12/08 14:37:38;;;;;;;37.30;23.87;;;;;;;;;;5034984;28;20250;-45
2022/12/08 14:40:09;;;;;;;27.63;15.47;;;;;;;;;;5014615;28;20222;-44
2022/12/08 14:42:44;;;;;;;47.97;22.03;;;;;;;;;;5015224;28;20237;-45
2022/12/08 14:45:14;;;;;;;53.67;25.63;;;;;;;;;;5015378;28;20224;-44